createdAt,value
2019-02-27T00:00:15.871Z,27.92
2019-02-27T00:01:16.932Z,26.21
2019-02-27T00:02:15.895Z,25.55
2019-02-27T00:03:15.906Z,25.93
2019-02-27T00:04:15.917Z,25.74
2019-02-27T00:05:15.932Z,25.26
2019-02-27T00:06:16.075Z,24.79
2019-02-27T00:07:15.954Z,24.98
2019-02-27T00:08:15.967Z,25.26
2019-02-27T00:09:15.978Z,25.55
2019-02-27T00:10:15.991Z,25.74
2019-02-27T00:11:15.999Z,25.64
2019-02-27T00:12:16.898Z,25.64
2019-02-27T00:13:16.024Z,25.74
2019-02-27T00:14:16.040Z,24.79
2019-02-27T00:15:16.047Z,23.93
2019-02-27T00:16:16.063Z,23.46
2019-02-27T00:17:18.089Z,22.80
2019-02-27T00:18:16.087Z,22.70
2019-02-27T00:19:16.098Z,23.27
2019-02-27T00:20:16.108Z,23.93
2019-02-27T00:21:16.123Z,24.98
2019-02-27T00:22:17.723Z,25.17
2019-02-27T00:23:16.143Z,24.79
2019-02-27T00:24:16.158Z,23.93
2019-02-27T00:25:16.175Z,23.93
2019-02-27T00:26:16.185Z,24.79
2019-02-27T00:27:16.193Z,24.41
2019-02-27T00:28:16.205Z,24.98
2019-02-27T00:29:16.225Z,25.26
2019-02-27T00:30:16.229Z,24.98
2019-02-27T00:31:16.245Z,25.07
2019-02-27T00:32:18.502Z,25.74
2019-02-27T00:33:16.271Z,26.78
2019-02-27T00:34:16.281Z,26.78
2019-02-27T00:35:16.288Z,26.59
2019-02-27T00:36:16.307Z,25.84
2019-02-27T00:37:18.733Z,25.26
2019-02-27T00:38:16.325Z,24.51
2019-02-27T00:39:16.348Z,23.55
2019-02-27T00:40:16.355Z,23.74
2019-02-27T00:41:16.364Z,24.22
2019-02-27T00:42:19.543Z,25.17
2019-02-27T00:43:16.388Z,25.84
2019-02-27T00:44:16.405Z,26.03
2019-02-27T00:45:16.416Z,25.07
2019-02-27T00:46:16.425Z,24.51
2019-02-27T00:47:17.034Z,25.07
2019-02-27T00:48:16.449Z,25.36
2019-02-27T00:49:16.459Z,25.15
2019-02-27T00:50:16.470Z,24.98
2019-02-27T00:51:16.485Z,24.96
2019-02-27T00:52:18.248Z,24.88
2019-02-27T00:53:16.509Z,24.60
2019-02-27T00:54:16.522Z,24.87
2019-02-27T00:55:16.533Z,25.25
2019-02-27T00:56:16.544Z,25.25
2019-02-27T00:57:20.492Z,25.35
2019-02-27T00:58:16.586Z,25.35
2019-02-27T00:59:16.580Z,25.25
2019-02-27T01:00:16.589Z,25.25
2019-02-27T01:01:16.605Z,24.96
2019-02-27T01:02:20.026Z,25.25
2019-02-27T01:03:16.624Z,25.54
2019-02-27T01:04:16.641Z,25.54
2019-02-27T01:05:16.655Z,25.35
2019-02-27T01:06:16.663Z,25.15
2019-02-27T01:07:20.255Z,25.25
2019-02-27T01:08:16.687Z,25.44
2019-02-27T01:09:16.696Z,25.35
2019-02-27T01:10:16.710Z,25.44
2019-02-27T01:11:18.495Z,25.54
2019-02-27T01:12:16.765Z,25.54
2019-02-27T01:13:16.746Z,25.92
2019-02-27T01:14:16.756Z,26.20
2019-02-27T01:15:16.769Z,26.20
2019-02-27T01:16:17.263Z,26.10
2019-02-27T01:17:16.794Z,25.82
2019-02-27T01:18:16.800Z,25.63
2019-02-27T01:19:16.817Z,25.25
2019-02-27T01:20:16.827Z,25.35
2019-02-27T01:21:19.178Z,25.54
2019-02-27T01:22:16.851Z,25.92
2019-02-27T01:23:16.858Z,25.15
2019-02-27T01:24:17.455Z,25.25
2019-02-27T01:25:16.886Z,26.01
2019-02-27T01:26:16.892Z,26.39
2019-02-27T01:27:16.903Z,26.67
2019-02-27T01:28:16.920Z,26.67
2019-02-27T01:29:18.091Z,26.48
2019-02-27T01:30:16.941Z,25.82
2019-02-27T01:31:16.950Z,26.20
2019-02-27T01:32:16.967Z,26.39
2019-02-27T01:33:16.975Z,26.39
2019-02-27T01:34:16.986Z,26.58
2019-02-27T01:35:18.787Z,26.29
2019-02-27T01:36:17.012Z,26.86
2019-02-27T01:37:17.020Z,26.48
2019-02-27T01:38:17.032Z,27.06
2019-02-27T01:39:17.043Z,27.06
2019-02-27T01:40:18.081Z,27.15
2019-02-27T01:41:17.067Z,27.81
2019-02-27T01:42:17.083Z,27.72
2019-02-27T01:43:17.090Z,27.81
2019-02-27T01:44:17.102Z,27.44
2019-02-27T01:45:20.741Z,27.72
2019-02-27T01:46:17.125Z,27.72
2019-02-27T01:47:17.137Z,27.81
2019-02-27T01:48:17.153Z,27.81
2019-02-27T01:49:17.161Z,27.53
2019-02-27T01:50:17.173Z,27.62
2019-02-27T01:51:17.184Z,28.00
2019-02-27T01:52:17.195Z,27.53
2019-02-27T01:53:17.206Z,27.25
2019-02-27T01:54:17.227Z,27.62
2019-02-27T01:55:17.234Z,27.72
2019-02-27T01:56:17.246Z,27.99
2019-02-27T01:57:17.259Z,27.51
2019-02-27T01:58:17.264Z,27.70
2019-02-27T01:59:17.804Z,27.70
2019-02-27T02:00:17.290Z,27.70
2019-02-27T02:01:17.305Z,27.80
2019-02-27T02:02:17.314Z,27.34
2019-02-27T02:03:17.325Z,27.51
2019-02-27T02:04:20.070Z,27.80
2019-02-27T02:05:17.345Z,28.37
2019-02-27T02:06:17.358Z,29.22
2019-02-27T02:07:17.368Z,29.51
2019-02-27T02:08:17.385Z,29.89
2019-02-27T02:09:21.066Z,29.89
2019-02-27T02:10:17.407Z,30.08
2019-02-27T02:11:17.414Z,30.17
2019-02-27T02:12:17.426Z,30.27
2019-02-27T02:13:17.444Z,30.08
2019-02-27T02:14:20.988Z,30.36
2019-02-27T02:15:17.461Z,30.55
2019-02-27T02:16:17.475Z,30.46
2019-02-27T02:17:17.481Z,30.65
2019-02-27T02:18:17.496Z,30.83
2019-02-27T02:19:18.953Z,30.27
2019-02-27T02:20:17.518Z,30.46
2019-02-27T02:21:17.527Z,30.74
2019-02-27T02:22:17.540Z,30.74
2019-02-27T02:23:17.552Z,30.83
2019-02-27T02:24:20.897Z,30.83
2019-02-27T02:25:17.575Z,30.83
2019-02-27T02:26:17.583Z,30.83
2019-02-27T02:27:17.594Z,30.65
2019-02-27T02:28:17.609Z,30.17
2019-02-27T02:29:17.944Z,29.60
2019-02-27T02:30:17.628Z,28.94
2019-02-27T02:31:17.644Z,28.56
2019-02-27T02:32:18.165Z,28.37
2019-02-27T02:33:17.667Z,28.47
2019-02-27T02:34:17.671Z,28.08
2019-02-27T02:35:17.686Z,27.61
2019-02-27T02:36:17.697Z,27.42
2019-02-27T02:37:17.710Z,27.04
2019-02-27T02:38:17.728Z,26.57
2019-02-27T02:39:19.249Z,25.99
2019-02-27T02:40:17.744Z,25.05
2019-02-27T02:41:17.755Z,24.48
2019-02-27T02:42:17.774Z,24.29
2019-02-27T02:43:17.775Z,24.38
2019-02-27T02:44:20.658Z,24.48
2019-02-27T02:45:17.800Z,24.29
2019-02-27T02:46:17.809Z,23.91
2019-02-27T02:47:21.055Z,23.91
2019-02-27T02:48:17.827Z,23.91
2019-02-27T02:49:17.837Z,24.19
2019-02-27T02:50:18.514Z,24.29
2019-02-27T02:51:17.878Z,23.53
2019-02-27T02:52:17.881Z,22.20
2019-02-27T02:53:17.888Z,21.82
2019-02-27T02:54:17.899Z,22.02
2019-02-27T02:55:17.907Z,22.39
2019-02-27T02:56:23.689Z,22.49
2019-02-27T02:57:17.931Z,22.69
2019-02-27T02:58:17.957Z,22.69
2019-02-27T02:59:24.530Z,22.69
2019-02-27T03:00:17.962Z,22.77
2019-02-27T03:01:17.972Z,22.39
2019-02-27T03:02:23.460Z,22.86
2019-02-27T03:03:17.994Z,22.67
2019-02-27T03:04:18.004Z,22.67
2019-02-27T03:05:23.338Z,22.96
2019-02-27T03:06:18.026Z,22.67
2019-02-27T03:07:18.050Z,22.67
2019-02-27T03:08:20.157Z,22.96
2019-02-27T03:09:18.068Z,22.96
2019-02-27T03:10:18.089Z,23.34
2019-02-27T03:11:19.285Z,23.63
2019-02-27T03:12:18.099Z,24.01
2019-02-27T03:13:18.108Z,24.48
2019-02-27T03:14:18.623Z,24.67
2019-02-27T03:15:18.128Z,25.62
2019-02-27T03:16:18.141Z,25.99
2019-02-27T03:17:19.230Z,25.71
2019-02-27T03:18:18.165Z,26.57
2019-02-27T03:19:18.171Z,26.28
2019-02-27T03:20:18.188Z,25.99
2019-02-27T03:21:18.203Z,25.62
2019-02-27T03:22:18.208Z,24.95
2019-02-27T03:23:18.217Z,23.91
2019-02-27T03:24:18.236Z,23.91
2019-02-27T03:25:18.244Z,23.63
2019-02-27T03:26:18.271Z,23.44
2019-02-27T03:27:18.265Z,22.96
2019-02-27T03:28:18.276Z,22.58
2019-02-27T03:29:18.285Z,22.49
2019-02-27T03:30:18.302Z,22.49
2019-02-27T03:31:19.201Z,22.58
2019-02-27T03:32:18.323Z,22.77
2019-02-27T03:33:24.451Z,22.77
2019-02-27T03:34:18.347Z,22.86
2019-02-27T03:35:18.361Z,22.96
2019-02-27T03:36:18.366Z,21.63
2019-02-27T03:37:18.376Z,21.44
2019-02-27T03:38:23.839Z,20.87
2019-02-27T03:39:18.398Z,20.40
2019-02-27T03:40:18.410Z,20.68
2019-02-27T03:41:22.550Z,21.63
2019-02-27T03:42:18.431Z,21.82
2019-02-27T03:43:18.441Z,21.73
2019-02-27T03:44:20.723Z,21.63
2019-02-27T03:45:18.462Z,21.44
2019-02-27T03:46:18.472Z,21.44
2019-02-27T03:47:18.489Z,21.35
2019-02-27T03:48:18.499Z,21.54
2019-02-27T03:49:18.508Z,21.82
2019-02-27T03:50:18.517Z,21.63
2019-02-27T03:51:24.336Z,21.92
2019-02-27T03:52:18.541Z,21.82
2019-02-27T03:53:18.554Z,22.20
2019-02-27T03:54:21.327Z,22.30
2019-02-27T03:55:18.576Z,21.92
2019-02-27T03:56:18.588Z,21.63
2019-02-27T03:57:20.132Z,21.15
2019-02-27T03:58:18.613Z,20.78
2019-02-27T03:59:18.617Z,20.87
2019-02-27T04:00:19.389Z,21.54
2019-02-27T04:01:18.646Z,22.58
2019-02-27T04:02:18.656Z,23.63
2019-02-27T04:03:18.747Z,24.95
2019-02-27T04:04:18.675Z,24.95
2019-02-27T04:05:18.686Z,24.76
2019-02-27T04:06:21.311Z,24.95
2019-02-27T04:07:18.720Z,24.67
2019-02-27T04:08:18.738Z,23.72
2019-02-27T04:09:20.108Z,23.63
2019-02-27T04:10:18.742Z,23.63
2019-02-27T04:11:18.751Z,23.91
2019-02-27T04:12:18.764Z,24.01
2019-02-27T04:13:18.771Z,23.63
2019-02-27T04:14:18.784Z,23.91
2019-02-27T04:15:18.930Z,24.19
2019-02-27T04:16:18.809Z,24.67
2019-02-27T04:17:18.829Z,25.24
2019-02-27T04:18:18.830Z,25.43
2019-02-27T04:19:18.838Z,25.05
2019-02-27T04:20:18.852Z,25.24
2019-02-27T04:21:24.998Z,25.34
2019-02-27T04:22:18.874Z,25.62
2019-02-27T04:23:18.884Z,25.62
2019-02-27T04:24:22.168Z,25.34
2019-02-27T04:25:18.901Z,25.62
2019-02-27T04:26:19.468Z,25.24
2019-02-27T04:27:21.272Z,25.24
2019-02-27T04:28:18.937Z,25.62
2019-02-27T04:29:18.948Z,25.62
2019-02-27T04:30:18.959Z,25.43
2019-02-27T04:31:18.968Z,25.62
2019-02-27T04:32:18.977Z,25.62
2019-02-27T04:33:22.849Z,25.90
2019-02-27T04:34:19.005Z,25.90
2019-02-27T04:35:19.010Z,25.14
2019-02-27T04:36:19.024Z,25.90
2019-02-27T04:37:20.408Z,26.47
2019-02-27T04:38:19.047Z,26.28
2019-02-27T04:39:19.051Z,26.47
2019-02-27T04:40:19.063Z,26.28
2019-02-27T04:41:19.076Z,26.18
2019-02-27T04:42:19.084Z,25.90
2019-02-27T04:43:19.115Z,25.62
2019-02-27T04:44:19.109Z,25.24
2019-02-27T04:45:19.117Z,24.95
2019-02-27T04:46:21.565Z,24.95
2019-02-27T04:47:19.139Z,24.48
2019-02-27T04:48:19.150Z,24.48
2019-02-27T04:49:19.164Z,24.57
2019-02-27T04:50:19.171Z,24.29
2019-02-27T04:51:19.182Z,24.29
2019-02-27T04:52:19.198Z,24.10
2019-02-27T04:53:19.205Z,24.29
2019-02-27T04:54:19.213Z,24.38
2019-02-27T04:55:19.226Z,24.38
2019-02-27T04:56:23.161Z,24.57
2019-02-27T04:57:19.247Z,24.57
2019-02-27T04:58:19.260Z,24.38
2019-02-27T04:59:19.351Z,24.76
2019-02-27T05:00:19.279Z,24.76
2019-02-27T05:01:19.290Z,24.76
2019-02-27T05:02:19.302Z,24.95
2019-02-27T05:03:19.313Z,24.86
2019-02-27T05:04:19.321Z,24.76
2019-02-27T05:05:19.334Z,25.34
2019-02-27T05:06:19.345Z,25.24
2019-02-27T05:07:20.358Z,24.76
2019-02-27T05:08:19.368Z,24.95
2019-02-27T05:09:19.381Z,24.76
2019-02-27T05:10:19.387Z,24.19
2019-02-27T05:11:19.401Z,24.01
2019-02-27T05:12:19.409Z,23.82
2019-02-27T05:13:20.893Z,23.82
2019-02-27T05:14:19.431Z,22.86
2019-02-27T05:15:19.443Z,23.44
2019-02-27T05:16:19.471Z,23.82
2019-02-27T05:17:21.473Z,24.38
2019-02-27T05:18:19.472Z,24.57
2019-02-27T05:19:19.533Z,24.38
2019-02-27T05:20:19.493Z,23.82
2019-02-27T05:21:19.804Z,23.63
2019-02-27T05:22:19.516Z,23.34
2019-02-27T05:23:19.529Z,22.77
2019-02-27T05:24:19.538Z,22.77
2019-02-27T05:25:19.549Z,22.01
2019-02-27T05:26:19.558Z,21.92
2019-02-27T05:27:19.571Z,22.11
2019-02-27T05:28:19.585Z,22.11
2019-02-27T05:29:19.591Z,21.73
2019-02-27T05:30:19.605Z,20.78
2019-02-27T05:31:19.612Z,19.54
2019-02-27T05:32:19.623Z,18.88
2019-02-27T05:33:19.634Z,18.98
2019-02-27T05:34:19.647Z,19.54
2019-02-27T05:35:23.549Z,19.54
2019-02-27T05:36:19.672Z,20.21
2019-02-27T05:37:19.692Z,20.50
2019-02-27T05:38:19.692Z,20.68
2019-02-27T05:39:19.699Z,20.87
2019-02-27T05:40:19.710Z,21.15
2019-02-27T05:41:19.729Z,21.44
2019-02-27T05:42:19.730Z,21.35
2019-02-27T05:43:19.748Z,21.44
2019-02-27T05:44:22.102Z,21.44
2019-02-27T05:45:19.768Z,21.73
2019-02-27T05:46:19.780Z,22.11
2019-02-27T05:47:19.785Z,22.30
2019-02-27T05:48:20.188Z,22.77
2019-02-27T05:49:19.806Z,22.96
2019-02-27T05:50:19.820Z,22.67
2019-02-27T05:51:19.830Z,22.96
2019-02-27T05:52:19.839Z,23.53
2019-02-27T05:53:22.082Z,23.44
2019-02-27T05:54:19.860Z,23.91
2019-02-27T05:55:19.874Z,24.01
2019-02-27T05:56:19.887Z,24.48
2019-02-27T05:57:21.096Z,24.86
2019-02-27T05:58:22.869Z,24.86
2019-02-27T05:59:19.913Z,24.86
2019-02-27T06:00:19.925Z,24.85
2019-02-27T06:01:19.935Z,24.95
2019-02-27T06:02:19.948Z,25.14
2019-02-27T06:03:19.964Z,25.43
2019-02-27T06:04:19.971Z,25.62
2019-02-27T06:05:19.977Z,25.71
2019-02-27T06:06:19.988Z,25.71
2019-02-27T06:07:20.001Z,25.52
2019-02-27T06:08:20.003Z,25.24
2019-02-27T06:09:20.009Z,25.04
2019-02-27T06:10:20.886Z,25.14
2019-02-27T06:11:20.031Z,24.67
2019-02-27T06:12:20.054Z,24.48
2019-02-27T06:13:20.053Z,24.67
2019-02-27T06:14:21.390Z,24.29
2019-02-27T06:15:20.079Z,23.63
2019-02-27T06:16:20.087Z,23.44
2019-02-27T06:17:20.146Z,23.44
2019-02-27T06:18:22.735Z,23.24
2019-02-27T06:19:20.119Z,23.05
2019-02-27T06:20:20.110Z,22.86
2019-02-27T06:21:20.137Z,22.58
2019-02-27T06:22:20.130Z,22.58
2019-02-27T06:23:20.138Z,22.58
2019-02-27T06:24:20.152Z,22.86
2019-02-27T06:25:23.463Z,23.34
2019-02-27T06:26:20.174Z,23.72
2019-02-27T06:27:20.181Z,23.91
2019-02-27T06:28:20.192Z,24.29
2019-02-27T06:29:23.283Z,24.29
2019-02-27T06:30:20.214Z,24.10
2019-02-27T06:31:20.226Z,23.91
2019-02-27T06:32:20.236Z,24.29
2019-02-27T06:33:20.251Z,23.91
2019-02-27T06:34:22.343Z,23.72
2019-02-27T06:35:20.264Z,23.53
2019-02-27T06:36:20.276Z,23.53
2019-02-27T06:37:20.289Z,23.63
2019-02-27T06:38:20.296Z,23.15
2019-02-27T06:39:20.312Z,23.63
2019-02-27T06:40:20.318Z,24.10
2019-02-27T06:41:20.331Z,24.01
2019-02-27T06:42:20.372Z,23.82
2019-02-27T06:43:20.350Z,24.01
2019-02-27T06:44:20.369Z,24.48
2019-02-27T06:45:20.370Z,24.19
2019-02-27T06:46:20.782Z,24.10
2019-02-27T06:47:20.397Z,23.91
2019-02-27T06:48:20.403Z,23.72
2019-02-27T06:49:20.414Z,23.53
2019-02-27T06:50:22.976Z,23.63
2019-02-27T06:51:20.440Z,23.91
2019-02-27T06:52:20.446Z,24.38
2019-02-27T06:53:20.460Z,24.67
2019-02-27T06:54:20.471Z,24.38
2019-02-27T06:55:20.484Z,24.67
2019-02-27T06:56:20.489Z,24.67
2019-02-27T06:57:20.499Z,23.91
2019-02-27T06:58:20.513Z,23.82
2019-02-27T06:59:24.613Z,22.39
2019-02-27T07:00:20.539Z,21.44
2019-02-27T07:01:20.548Z,21.44
2019-02-27T07:02:21.673Z,22.11
2019-02-27T07:03:20.567Z,21.82
2019-02-27T07:04:20.575Z,21.15
2019-02-27T07:05:20.592Z,21.15
2019-02-27T07:06:21.665Z,20.68
2019-02-27T07:07:20.610Z,21.25
2019-02-27T07:08:20.617Z,21.54
2019-02-27T07:09:20.631Z,22.30
2019-02-27T07:10:20.740Z,22.86
2019-02-27T07:11:20.650Z,23.24
2019-02-27T07:12:21.808Z,22.49
2019-02-27T07:13:21.635Z,22.96
2019-02-27T07:14:20.682Z,22.77
2019-02-27T07:15:20.696Z,22.30
2019-02-27T07:16:22.945Z,22.30
2019-02-27T07:17:20.719Z,21.92
2019-02-27T07:18:20.727Z,21.63
2019-02-27T07:19:20.741Z,21.54
2019-02-27T07:20:23.875Z,21.63
2019-02-27T07:21:20.763Z,21.54
2019-02-27T07:22:20.775Z,21.44
2019-02-27T07:23:23.669Z,21.63
2019-02-27T07:24:20.798Z,21.73
2019-02-27T07:25:20.809Z,21.73
2019-02-27T07:26:20.812Z,21.63
2019-02-27T07:27:20.824Z,21.35
2019-02-27T07:28:20.836Z,21.06
2019-02-27T07:29:22.074Z,20.21
2019-02-27T07:30:20.877Z,20.40
2019-02-27T07:31:20.877Z,20.21
2019-02-27T07:32:20.880Z,19.84
2019-02-27T07:33:20.901Z,20.31
2019-02-27T07:34:20.900Z,20.22
2019-02-27T07:35:25.393Z,20.31
2019-02-27T07:36:20.922Z,20.22
2019-02-27T07:37:20.936Z,20.98
2019-02-27T07:38:21.733Z,20.89
2019-02-27T07:39:20.959Z,21.17
2019-02-27T07:40:20.966Z,21.26
2019-02-27T07:41:21.083Z,20.50
2019-02-27T07:42:20.988Z,21.08
2019-02-27T07:43:20.999Z,20.60
2019-02-27T07:44:21.010Z,20.60
2019-02-27T07:45:22.702Z,20.69
2019-02-27T07:46:22.517Z,20.50
2019-02-27T07:47:21.061Z,21.26
2019-02-27T07:48:21.056Z,21.36
2019-02-27T07:49:21.072Z,20.98
2019-02-27T07:50:21.083Z,20.50
2019-02-27T07:51:23.288Z,20.89
2019-02-27T07:52:21.102Z,21.45
2019-02-27T07:53:21.114Z,21.55
2019-02-27T07:54:21.128Z,21.64
2019-02-27T07:55:22.767Z,21.45
2019-02-27T07:56:21.145Z,20.50
2019-02-27T07:57:21.157Z,19.84
2019-02-27T07:58:21.170Z,20.12
2019-02-27T07:59:21.183Z,19.74
2019-02-27T08:00:21.191Z,20.51
2019-02-27T08:01:23.532Z,20.42
2019-02-27T08:02:21.211Z,19.28
2019-02-27T08:03:21.228Z,19.57
2019-02-27T08:04:23.022Z,20.14
2019-02-27T08:05:21.247Z,19.01
2019-02-27T08:06:23.460Z,20.53
2019-02-27T08:07:21.268Z,20.82
2019-02-27T08:08:23.739Z,20.73
2019-02-27T08:09:21.291Z,19.11
2019-02-27T08:10:21.303Z,18.06
2019-02-27T08:11:21.317Z,17.58
2019-02-27T08:12:21.325Z,16.92
2019-02-27T08:13:21.339Z,17.40
2019-02-27T08:14:21.355Z,18.35
2019-02-27T08:15:21.363Z,18.44
2019-02-27T08:16:21.943Z,17.97
2019-02-27T08:17:21.389Z,18.26
2019-02-27T08:18:29.802Z,17.69
2019-02-27T08:19:21.414Z,18.45
2019-02-27T08:20:21.420Z,19.21
2019-02-27T08:21:21.431Z,18.36
2019-02-27T08:22:21.445Z,18.16
2019-02-27T08:23:21.462Z,18.16
2019-02-27T08:24:22.436Z,18.64
2019-02-27T08:25:21.503Z,18.26
2019-02-27T08:26:21.489Z,18.36
2019-02-27T08:27:21.501Z,18.55
2019-02-27T08:28:21.514Z,18.45
2019-02-27T08:29:21.525Z,18.08
2019-02-27T08:30:21.544Z,17.70
2019-02-27T08:31:21.555Z,18.37
2019-02-27T08:32:21.561Z,18.18
2019-02-27T08:33:21.574Z,17.89
2019-02-27T08:34:21.591Z,17.03
2019-02-27T08:35:21.603Z,17.41
2019-02-27T08:36:21.610Z,17.97
2019-02-27T08:37:21.626Z,18.55
2019-02-27T08:38:23.514Z,19.42
2019-02-27T08:39:21.652Z,20.17
2019-02-27T08:40:24.215Z,20.08
2019-02-27T08:41:21.677Z,20.08
2019-02-27T08:42:21.685Z,19.13
2019-02-27T08:43:21.696Z,19.89
2019-02-27T08:44:21.708Z,18.85
2019-02-27T08:45:26.720Z,18.38
2019-02-27T08:46:21.736Z,19.04
2019-02-27T08:47:21.748Z,20.00
2019-02-27T08:48:21.758Z,19.91
2019-02-27T08:49:24.177Z,19.62
2019-02-27T08:50:21.789Z,18.85
2019-02-27T08:51:21.799Z,18.18
2019-02-27T08:52:21.812Z,18.57
2019-02-27T08:53:25.998Z,18.18
2019-02-27T08:54:21.832Z,17.70
2019-02-27T08:55:22.465Z,20.00
2019-02-27T08:56:21.861Z,19.61
2019-02-27T08:57:21.871Z,19.13
2019-02-27T08:58:21.887Z,18.85
2019-02-27T08:59:21.896Z,18.46
2019-02-27T09:00:23.289Z,18.85
2019-02-27T09:01:22.427Z,19.04
2019-02-27T09:02:24.151Z,19.33
2019-02-27T09:03:21.955Z,20.00
2019-02-27T09:04:21.964Z,18.76
2019-02-27T09:05:21.982Z,19.34
2019-02-27T09:06:21.991Z,18.96
2019-02-27T09:07:21.997Z,20.00
2019-02-27T09:08:22.011Z,19.24
2019-02-27T09:09:22.035Z,18.01
2019-02-27T09:10:23.191Z,17.72
2019-02-27T09:11:22.059Z,18.28
2019-02-27T09:12:22.067Z,18.67
2019-02-27T09:13:22.081Z,19.81
2019-02-27T09:14:22.089Z,18.48
2019-02-27T09:15:22.103Z,17.72
2019-02-27T09:16:23.097Z,18.77
2019-02-27T09:17:22.135Z,20.00
2019-02-27T09:18:22.947Z,19.43
2019-02-27T09:19:22.155Z,18.67
2019-02-27T09:20:22.174Z,17.33
2019-02-27T09:21:22.181Z,18.77
2019-02-27T09:22:22.195Z,19.73
2019-02-27T09:23:22.255Z,20.78
2019-02-27T09:24:22.220Z,20.59
2019-02-27T09:25:24.532Z,20.68
2019-02-27T09:26:22.249Z,20.11
2019-02-27T09:27:22.261Z,21.08
2019-02-27T09:28:22.273Z,20.60
2019-02-27T09:29:22.293Z,19.64
2019-02-27T09:30:22.299Z,19.64
2019-02-27T09:31:22.314Z,19.26
2019-02-27T09:32:22.331Z,18.69
2019-02-27T09:33:22.343Z,18.40
2019-02-27T09:34:26.654Z,17.72
2019-02-27T09:35:22.367Z,18.79
2019-02-27T09:36:22.381Z,18.88
2019-02-27T09:37:22.400Z,18.98
2019-02-27T09:38:24.324Z,18.21
2019-02-27T09:39:22.422Z,18.50
2019-02-27T09:40:22.438Z,19.45
2019-02-27T09:41:22.450Z,19.74
2019-02-27T09:42:22.464Z,19.35
2019-02-27T09:43:24.181Z,18.21
2019-02-27T09:44:22.492Z,18.50
2019-02-27T09:45:22.510Z,19.74
2019-02-27T09:46:22.519Z,19.17
2019-02-27T09:47:25.422Z,18.88
2019-02-27T09:48:22.552Z,18.50
2019-02-27T09:49:22.570Z,18.50
2019-02-27T09:50:22.585Z,18.59
2019-02-27T09:51:22.906Z,18.50
2019-02-27T09:52:23.731Z,18.50
2019-02-27T09:53:22.624Z,18.98
2019-02-27T09:54:22.648Z,18.98
2019-02-27T09:55:22.656Z,19.09
2019-02-27T09:56:22.664Z,18.80
2019-02-27T09:57:22.681Z,17.27
2019-02-27T09:58:22.858Z,17.47
2019-02-27T09:59:22.722Z,17.85
2019-02-27T10:00:25.915Z,18.04
2019-02-27T10:01:22.743Z,17.08
2019-02-27T10:02:22.753Z,17.66
2019-02-27T10:03:22.764Z,16.99
2019-02-27T10:04:22.780Z,18.24
2019-02-27T10:05:22.797Z,17.10
2019-02-27T10:06:22.817Z,16.42
2019-02-27T10:07:22.824Z,16.33
2019-02-27T10:08:25.390Z,16.61
2019-02-27T10:09:22.870Z,16.52
2019-02-27T10:10:22.870Z,16.61
2019-02-27T10:11:22.892Z,16.52
2019-02-27T10:12:27.130Z,15.84
2019-02-27T10:13:22.921Z,15.37
2019-02-27T10:14:22.932Z,16.33
2019-02-27T10:15:25.231Z,17.38
2019-02-27T10:16:22.966Z,16.52
2019-02-27T10:17:22.977Z,16.42
2019-02-27T10:18:22.996Z,17.08
2019-02-27T10:19:23.011Z,17.76
2019-02-27T10:20:23.033Z,16.71
2019-02-27T10:21:23.045Z,16.89
2019-02-27T10:22:24.607Z,17.66
2019-02-27T10:23:23.077Z,17.10
2019-02-27T10:24:23.086Z,15.46
2019-02-27T10:25:23.103Z,15.28
2019-02-27T10:26:23.119Z,15.75
2019-02-27T10:27:28.418Z,16.52
2019-02-27T10:28:23.151Z,17.10
2019-02-27T10:29:23.167Z,17.58
2019-02-27T10:30:23.178Z,16.43
2019-02-27T10:31:25.968Z,16.24
2019-02-27T10:32:23.215Z,15.57
2019-02-27T10:33:23.227Z,16.43
2019-02-27T10:34:23.245Z,15.29
2019-02-27T10:35:23.263Z,14.99
2019-02-27T10:36:23.281Z,15.67
2019-02-27T10:37:23.495Z,15.56
2019-02-27T10:38:26.152Z,15.19
2019-02-27T10:39:23.324Z,15.57
2019-02-27T10:40:23.341Z,15.19
2019-02-27T10:41:23.361Z,15.39
2019-02-27T10:42:23.369Z,13.95
2019-02-27T10:43:23.390Z,13.67
2019-02-27T10:44:23.404Z,12.90
2019-02-27T10:45:23.419Z,13.01
2019-02-27T10:46:24.281Z,12.53
2019-02-27T10:47:23.454Z,12.33
2019-02-27T10:48:23.467Z,11.85
2019-02-27T10:49:23.489Z,12.62
2019-02-27T10:50:23.499Z,12.71
2019-02-27T10:51:23.521Z,12.71
2019-02-27T10:52:24.265Z,13.29
2019-02-27T10:53:27.100Z,13.09
2019-02-27T10:54:23.564Z,12.90
2019-02-27T10:55:23.587Z,13.28
2019-02-27T10:56:24.257Z,13.28
2019-02-27T10:57:23.629Z,14.62
2019-02-27T10:58:24.679Z,14.72
2019-02-27T10:59:23.653Z,14.90
2019-02-27T11:00:25.095Z,14.91
2019-02-27T11:01:23.687Z,14.34
2019-02-27T11:02:23.765Z,14.72
2019-02-27T11:03:27.248Z,15.20
2019-02-27T11:04:23.741Z,14.43
2019-02-27T11:05:23.759Z,14.23
2019-02-27T11:06:23.770Z,15.29
2019-02-27T11:07:23.785Z,15.29
2019-02-27T11:08:23.805Z,17.02
2019-02-27T11:09:23.817Z,17.30
2019-02-27T11:10:23.836Z,15.77
2019-02-27T11:11:23.854Z,15.01
2019-02-27T11:12:23.870Z,13.48
2019-02-27T11:13:23.888Z,15.30
2019-02-27T11:14:23.902Z,16.73
2019-02-27T11:15:23.921Z,15.97
2019-02-27T11:16:23.934Z,15.20
2019-02-27T11:17:23.956Z,14.06
2019-02-27T11:18:23.971Z,12.91
2019-02-27T11:19:23.984Z,13.48
2019-02-27T11:20:24.758Z,13.48
2019-02-27T11:21:24.020Z,13.57
2019-02-27T11:22:24.035Z,13.38
2019-02-27T11:23:24.055Z,15.30
2019-02-27T11:24:24.752Z,15.97
2019-02-27T11:25:24.104Z,16.83
2019-02-27T11:26:24.107Z,16.25
2019-02-27T11:27:24.122Z,16.44
2019-02-27T11:28:24.141Z,17.50
2019-02-27T11:29:24.437Z,15.88
2019-02-27T11:30:24.179Z,15.96
2019-02-27T11:31:24.190Z,15.87
2019-02-27T11:32:24.213Z,16.35
2019-02-27T11:33:25.939Z,15.69
2019-02-27T11:34:24.246Z,15.30
2019-02-27T11:35:25.195Z,13.68
2019-02-27T11:36:24.277Z,13.48
2019-02-27T11:37:24.299Z,13.87
2019-02-27T11:38:25.347Z,13.49
2019-02-27T11:39:24.331Z,13.58
2019-02-27T11:40:24.351Z,15.22
2019-02-27T11:41:24.368Z,13.68
2019-02-27T11:42:24.384Z,13.39
2019-02-27T11:43:24.402Z,11.76
2019-02-27T11:44:24.421Z,12.62
2019-02-27T11:45:24.888Z,13.48
2019-02-27T11:46:24.458Z,14.73
2019-02-27T11:47:24.470Z,15.69
2019-02-27T11:48:24.491Z,15.98
2019-02-27T11:49:24.505Z,17.23
2019-02-27T11:50:24.522Z,16.74
2019-02-27T11:51:24.540Z,15.22
2019-02-27T11:52:27.881Z,15.22
2019-02-27T11:53:24.580Z,14.83
2019-02-27T11:54:24.592Z,13.59
2019-02-27T11:55:24.726Z,14.35
2019-02-27T11:56:24.634Z,16.36
2019-02-27T11:57:27.292Z,17.22
2019-02-27T11:58:24.669Z,16.46
2019-02-27T11:59:24.691Z,16.36
2019-02-27T12:00:24.763Z,16.06
2019-02-27T12:01:24.727Z,17.21
2019-02-27T12:02:29.079Z,16.92
2019-02-27T12:03:24.757Z,17.60
2019-02-27T12:04:24.773Z,17.12
2019-02-27T12:05:24.794Z,16.65
2019-02-27T12:06:24.809Z,17.03
2019-02-27T12:07:24.827Z,15.78
2019-02-27T12:08:26.681Z,17.22
2019-02-27T12:09:24.868Z,17.05
2019-02-27T12:10:24.880Z,16.56
2019-02-27T12:11:24.900Z,16.08
2019-02-27T12:12:24.924Z,15.89
2019-02-27T12:13:24.935Z,16.37
2019-02-27T12:14:24.962Z,16.17
2019-02-27T12:15:24.974Z,15.22
2019-02-27T12:16:24.993Z,13.78
2019-02-27T12:17:25.727Z,16.66
2019-02-27T12:18:25.032Z,16.08
2019-02-27T12:19:25.045Z,17.33
2019-02-27T12:20:25.063Z,18.49
2019-02-27T12:21:26.228Z,16.47
2019-02-27T12:22:25.105Z,16.00
2019-02-27T12:23:25.128Z,17.44
2019-02-27T12:24:25.137Z,17.73
2019-02-27T12:25:29.187Z,18.12
2019-02-27T12:26:25.177Z,17.15
2019-02-27T12:27:47.931Z,17.24
2019-02-27T12:28:25.214Z,16.47
2019-02-27T12:29:26.557Z,15.99
2019-02-27T12:30:25.254Z,16.08
2019-02-27T12:31:25.265Z,17.62
2019-02-27T12:32:25.290Z,17.44
2019-02-27T12:33:29.206Z,16.57
2019-02-27T12:34:25.321Z,16.19
2019-02-27T12:35:25.345Z,15.71
2019-02-27T12:36:25.363Z,15.71
2019-02-27T12:37:28.361Z,16.18
2019-02-27T12:38:25.398Z,16.47
2019-02-27T12:39:25.421Z,16.38
2019-02-27T12:40:25.451Z,15.61
2019-02-27T12:41:25.459Z,16.39
2019-02-27T12:42:25.478Z,15.62
2019-02-27T12:43:25.499Z,14.36
2019-02-27T12:44:25.516Z,14.45
2019-02-27T12:45:26.512Z,14.94
2019-02-27T12:46:25.550Z,14.55
2019-02-27T12:47:25.574Z,14.94
2019-02-27T12:48:25.588Z,15.33
2019-02-27T12:49:25.607Z,14.84
2019-02-27T12:50:26.846Z,15.23
2019-02-27T12:51:25.646Z,14.37
2019-02-27T12:52:25.670Z,14.56